createdAt,value
2022-08-01T00:03:04.771Z,18.80
2022-08-01T00:07:08.579Z,18.80
2022-08-01T00:11:12.420Z,18.70
2022-08-01T00:15:18.123Z,18.60
2022-08-01T00:19:22.015Z,18.40
2022-08-01T00:23:26.051Z,18.40
2022-08-01T00:27:29.784Z,18.30
2022-08-01T00:31:33.435Z,18.20
2022-08-01T00:35:37.367Z,18.20
2022-08-01T00:39:41.373Z,18.10
2022-08-01T00:43:45.171Z,17.90
2022-08-01T00:47:49.078Z,17.90
2022-08-01T00:52:02.584Z,17.80
2022-08-01T00:56:07.283Z,17.80
2022-08-01T01:00:11.988Z,17.80
2022-08-01T01:04:20.090Z,17.80
2022-08-01T01:08:37.471Z,17.70
2022-08-01T01:13:08.365Z,17.70
2022-08-01T01:17:16.137Z,17.70
2022-08-01T01:21:22.549Z,17.70
2022-08-01T01:26:06.209Z,17.60
2022-08-01T01:30:10.321Z,17.50
2022-08-01T01:34:16.688Z,17.50
2022-08-01T01:38:26.987Z,17.50
2022-08-01T01:42:33.371Z,17.40
2022-08-01T01:46:38.288Z,17.40
2022-08-01T01:50:43.704Z,17.30
2022-08-01T01:54:50.918Z,17.20
2022-08-01T01:59:00.841Z,17.20
2022-08-01T02:03:08.482Z,17.10
2022-08-01T02:07:15.865Z,17.10
2022-08-01T02:11:24.987Z,17.00
2022-08-01T02:15:30.668Z,16.90
2022-08-01T02:19:38.558Z,16.90
2022-08-01T02:23:45.385Z,16.80
2022-08-01T02:28:05.846Z,16.80
2022-08-01T02:32:18.056Z,16.70
2022-08-01T02:36:30.782Z,16.70
2022-08-01T02:40:40.050Z,16.70
2022-08-01T02:44:46.302Z,16.60
2022-08-01T02:48:54.623Z,16.60
2022-08-01T02:52:59.682Z,16.60
2022-08-01T02:57:04.887Z,16.60
2022-08-01T03:01:12.224Z,16.60
2022-08-01T03:05:18.435Z,16.60
2022-08-01T03:09:23.689Z,16.60
2022-08-01T03:13:29.244Z,16.50
2022-08-01T03:17:35.707Z,16.50
2022-08-01T03:21:41.728Z,16.40
2022-08-01T03:23:38.378Z,16.50
2022-08-01T03:25:46.953Z,16.40
2022-08-01T03:27:47.103Z,16.60
2022-08-01T03:29:51.405Z,16.40
2022-08-01T03:31:51.795Z,16.70
2022-08-01T03:33:55.222Z,16.40
2022-08-01T03:35:57.202Z,16.80
2022-08-01T03:38:15.714Z,16.30
2022-08-01T03:40:12.999Z,16.80
2022-08-01T03:42:30.222Z,16.30
2022-08-01T03:44:21.941Z,16.70
2022-08-01T03:46:53.415Z,16.20
2022-08-01T03:48:31.301Z,16.60
2022-08-01T03:50:59.920Z,16.20
2022-08-01T03:52:38.043Z,16.50
2022-08-01T03:55:08.406Z,16.20
2022-08-01T03:56:44.822Z,16.50
2022-08-01T03:59:12.368Z,16.20
2022-08-01T04:00:49.609Z,16.60
2022-08-01T04:03:16.587Z,16.20
2022-08-01T04:04:53.809Z,16.60
2022-08-01T04:07:25.653Z,16.20
2022-08-01T04:08:58.629Z,16.70
2022-08-01T04:11:29.757Z,16.10
2022-08-01T04:13:03.080Z,16.70
2022-08-01T04:15:33.781Z,16.20
2022-08-01T04:17:07.221Z,16.70
2022-08-01T04:19:37.626Z,16.10
2022-08-01T04:21:10.989Z,16.60
2022-08-01T04:23:45.226Z,16.10
2022-08-01T04:25:21.578Z,16.60
2022-08-01T04:27:53.665Z,16.10
2022-08-01T04:29:26.804Z,16.60
2022-08-01T04:31:59.438Z,16.20
2022-08-01T04:33:32.976Z,16.70
2022-08-01T04:36:05.909Z,16.20
2022-08-01T04:37:38.334Z,16.70
2022-08-01T04:40:10.121Z,16.20
2022-08-01T04:41:43.231Z,16.80
2022-08-01T04:44:14.294Z,16.20
2022-08-01T04:45:49.037Z,16.90
2022-08-01T04:48:22.960Z,16.20
2022-08-01T04:49:53.388Z,17.80
2022-08-01T04:52:39.788Z,16.30
2022-08-01T04:53:59.178Z,19.30
2022-08-01T04:56:44.340Z,16.40
2022-08-01T04:58:03.643Z,20.80
2022-08-01T05:00:48.728Z,16.50
2022-08-01T05:02:14.269Z,21.60
2022-08-01T05:04:52.595Z,16.70
2022-08-01T05:06:18.204Z,22.50
2022-08-01T05:08:56.192Z,16.90
2022-08-01T05:10:22.250Z,23.40
2022-08-01T05:12:59.903Z,17.10
2022-08-01T05:14:27.638Z,24.30
2022-08-01T05:17:06.203Z,17.20
2022-08-01T05:18:31.756Z,25.00
2022-08-01T05:21:10.127Z,17.50
2022-08-01T05:22:36.894Z,25.50
2022-08-01T05:25:13.770Z,17.70
2022-08-01T05:26:41.531Z,26.10
2022-08-01T05:29:24.271Z,17.90
2022-08-01T05:30:46.341Z,26.80
2022-08-01T05:33:27.952Z,18.30
2022-08-01T05:34:50.354Z,27.30
2022-08-01T05:37:32.449Z,18.60
2022-08-01T05:38:54.660Z,28.00
2022-08-01T05:41:37.996Z,18.90
2022-08-01T05:42:58.680Z,28.60
2022-08-01T05:45:43.267Z,19.20
2022-08-01T05:47:04.062Z,29.20
2022-08-01T05:49:47.861Z,19.60
2022-08-01T05:51:08.394Z,29.80
2022-08-01T05:53:51.597Z,19.90
2022-08-01T05:55:30.229Z,30.30
2022-08-01T05:57:55.171Z,20.30
2022-08-01T06:00:03.199Z,30.90
2022-08-01T06:01:58.912Z,20.70
2022-08-01T06:04:41.708Z,31.50
2022-08-01T06:06:06.208Z,21.10
2022-08-01T06:08:57.893Z,32.00
2022-08-01T06:10:10.304Z,21.60
2022-08-01T06:13:23.328Z,32.60
2022-08-01T06:14:13.819Z,22.00
2022-08-01T06:17:56.955Z,33.20
2022-08-01T06:18:17.664Z,22.50
2022-08-01T06:22:21.235Z,22.90
2022-08-01T06:22:33.017Z,33.80
2022-08-01T06:26:25.608Z,23.30
2022-08-01T06:27:21.934Z,34.30
2022-08-01T06:30:29.650Z,23.60
2022-08-01T06:31:58.306Z,34.90
2022-08-01T06:34:33.540Z,24.00
2022-08-01T06:36:29.435Z,35.30
2022-08-01T06:38:37.099Z,24.30
2022-08-01T06:41:12.357Z,35.80
2022-08-01T06:42:41.231Z,24.60
2022-08-01T06:45:38.612Z,36.20
2022-08-01T06:46:44.780Z,24.80
2022-08-01T06:49:46.042Z,36.50
2022-08-01T06:50:48.824Z,25.00
2022-08-01T06:53:53.135Z,37.00
2022-08-01T06:54:52.835Z,25.20
2022-08-01T06:57:57.512Z,37.10
2022-08-01T06:59:02.068Z,25.60
2022-08-01T07:02:02.894Z,37.00
2022-08-01T07:03:05.674Z,25.90
2022-08-01T07:06:07.091Z,35.60
2022-08-01T07:07:09.641Z,26.10
2022-08-01T07:10:13.147Z,33.90
2022-08-01T07:11:13.450Z,26.40
2022-08-01T07:14:17.265Z,32.60
2022-08-01T07:15:17.214Z,26.70
2022-08-01T07:18:26.425Z,31.70
2022-08-01T07:19:20.790Z,27.00
2022-08-01T07:22:31.739Z,31.00
2022-08-01T07:23:33.870Z,27.20
2022-08-01T07:26:35.846Z,30.60
2022-08-01T07:27:38.676Z,27.40
2022-08-01T07:30:39.855Z,30.40
2022-08-01T07:31:42.786Z,27.70
2022-08-01T07:34:44.092Z,30.30
2022-08-01T07:35:46.580Z,27.90
2022-08-01T07:38:48.938Z,30.10
2022-08-01T07:39:51.896Z,28.10
2022-08-01T07:42:52.985Z,30.00
2022-08-01T07:44:01.777Z,28.40
2022-08-01T07:46:57.239Z,30.00
2022-08-01T07:48:13.019Z,28.60
2022-08-01T07:51:01.554Z,29.90
2022-08-01T07:52:19.775Z,28.90
2022-08-01T07:55:06.935Z,29.90
2022-08-01T07:56:27.827Z,29.10
2022-08-01T07:59:11.054Z,29.90
2022-08-01T08:00:34.405Z,29.40
2022-08-01T08:03:15.300Z,29.90
2022-08-01T08:04:44.591Z,29.70
2022-08-01T08:07:19.657Z,29.90
2022-08-01T08:08:51.443Z,29.90
2022-08-01T08:11:24.663Z,29.90
2022-08-01T08:12:55.174Z,30.30
2022-08-01T08:15:34.330Z,29.90
2022-08-01T08:16:58.732Z,30.60
2022-08-01T08:19:40.753Z,30.00
2022-08-01T08:21:06.654Z,31.00
2022-08-01T08:24:03.442Z,30.00
2022-08-01T08:25:12.845Z,31.10
2022-08-01T08:28:07.632Z,30.00
2022-08-01T08:29:17.515Z,31.50
2022-08-01T08:32:12.146Z,30.00
2022-08-01T08:33:21.196Z,31.80
2022-08-01T08:36:16.934Z,30.10
2022-08-01T08:37:24.805Z,32.10
2022-08-01T08:40:27.419Z,30.10
2022-08-01T08:41:37.676Z,32.20
2022-08-01T08:44:32.074Z,30.10
2022-08-01T08:45:58.059Z,32.30
2022-08-01T08:48:38.386Z,30.20
2022-08-01T08:50:05.213Z,32.60
2022-08-01T08:52:44.092Z,30.20
2022-08-01T08:54:11.449Z,32.90
2022-08-01T08:56:49.437Z,30.20
2022-08-01T08:58:19.180Z,33.10
2022-08-01T09:00:55.925Z,30.30
2022-08-01T09:02:23.326Z,33.30
2022-08-01T09:05:00.471Z,30.50
2022-08-01T09:06:27.630Z,33.40
2022-08-01T09:09:06.113Z,30.50
2022-08-01T09:10:31.707Z,33.60
2022-08-01T09:13:15.974Z,30.60
2022-08-01T09:14:46.717Z,33.90
2022-08-01T09:17:21.397Z,30.80
2022-08-01T09:18:53.372Z,34.00
2022-08-01T09:21:26.621Z,30.90
2022-08-01T09:22:57.460Z,34.10
2022-08-01T09:25:53.037Z,31.00
2022-08-01T09:27:03.348Z,34.10
2022-08-01T09:30:17.210Z,31.20
2022-08-01T09:31:12.564Z,34.20
2022-08-01T09:34:34.526Z,31.40
2022-08-01T09:35:46.664Z,34.50
2022-08-01T09:38:39.022Z,32.00
2022-08-01T09:39:59.204Z,34.70
2022-08-01T09:42:43.423Z,32.70
2022-08-01T09:44:03.000Z,34.90
2022-08-01T09:46:53.299Z,33.60
2022-08-01T09:48:17.657Z,35.10
2022-08-01T09:51:04.272Z,35.20
2022-08-01T09:52:26.084Z,35.30
2022-08-01T09:55:37.850Z,37.50
2022-08-01T09:56:41.665Z,35.20
2022-08-01T10:00:01.704Z,39.20
2022-08-01T10:01:05.501Z,35.30
2022-08-01T10:04:21.904Z,40.50
2022-08-01T10:05:20.987Z,35.60
2022-08-01T10:08:27.186Z,41.50
2022-08-01T10:09:39.867Z,35.80
2022-08-01T10:12:34.915Z,42.00
2022-08-01T10:13:44.692Z,36.00
2022-08-01T10:16:41.686Z,42.50
2022-08-01T10:17:58.593Z,36.30
2022-08-01T10:20:47.905Z,43.00
2022-08-01T10:22:02.735Z,36.50
2022-08-01T10:24:57.197Z,43.10
2022-08-01T10:26:08.302Z,36.50
2022-08-01T10:29:02.482Z,43.30
2022-08-01T10:30:19.727Z,36.50
2022-08-01T10:33:08.893Z,43.60
2022-08-01T10:34:27.427Z,36.50
2022-08-01T10:37:19.597Z,44.00
2022-08-01T10:38:33.233Z,36.50
2022-08-01T10:41:26.054Z,44.20
2022-08-01T10:42:37.263Z,36.80
2022-08-01T10:45:32.444Z,44.50
2022-08-01T10:46:48.281Z,37.10
2022-08-01T10:49:57.498Z,44.60
2022-08-01T10:50:55.740Z,37.50
2022-08-01T10:54:09.854Z,44.80
2022-08-01T10:55:18.236Z,37.70
2022-08-01T10:58:15.831Z,45.10
2022-08-01T10:59:49.859Z,37.90
2022-08-01T11:02:42.260Z,45.20
2022-08-01T11:04:03.227Z,38.10
2022-08-01T11:06:55.998Z,45.10
2022-08-01T11:08:37.870Z,38.30
2022-08-01T11:11:03.814Z,45.10
2022-08-01T11:12:44.325Z,38.50
2022-08-01T11:15:11.545Z,45.10
2022-08-01T11:16:47.880Z,38.70
2022-08-01T11:19:15.719Z,45.10
2022-08-01T11:21:56.274Z,38.90
2022-08-01T11:23:21.683Z,45.10
2022-08-01T11:26:06.039Z,39.00
2022-08-01T11:27:33.589Z,45.10
2022-08-01T11:30:13.374Z,39.00
2022-08-01T11:31:38.461Z,45.20
2022-08-01T11:34:17.641Z,39.00
2022-08-01T11:36:14.582Z,45.40
2022-08-01T11:38:29.417Z,38.80
2022-08-01T11:40:30.555Z,45.20
2022-08-01T11:42:36.727Z,38.80
2022-08-01T11:44:52.845Z,45.20
2022-08-01T11:47:09.466Z,39.10
2022-08-01T11:49:29.332Z,45.50
2022-08-01T11:51:23.933Z,39.20
2022-08-01T11:53:35.125Z,45.40
2022-08-01T11:55:31.496Z,39.30
2022-08-01T11:57:41.130Z,45.10
2022-08-01T12:00:03.239Z,39.40
2022-08-01T12:01:47.518Z,44.90
2022-08-01T12:04:17.444Z,39.60
2022-08-01T12:05:53.123Z,44.90
2022-08-01T12:08:30.886Z,39.60
2022-08-01T12:10:16.220Z,45.00
2022-08-01T12:12:36.229Z,39.30
2022-08-01T12:14:22.925Z,44.80
2022-08-01T12:16:39.887Z,39.20
2022-08-01T12:18:28.146Z,44.80
2022-08-01T12:20:56.121Z,39.10
2022-08-01T12:22:35.228Z,44.60
2022-08-01T12:25:14.664Z,39.10
2022-08-01T12:26:45.192Z,44.60
2022-08-01T12:29:41.874Z,39.20
2022-08-01T12:30:50.536Z,44.80
2022-08-01T12:33:47.596Z,39.00
2022-08-01T12:34:56.955Z,44.60
2022-08-01T12:38:01.157Z,38.80
2022-08-01T12:39:05.324Z,44.50
2022-08-01T12:42:10.048Z,38.60
2022-08-01T12:43:15.816Z,44.60
2022-08-01T12:46:19.386Z,38.30
2022-08-01T12:47:32.326Z,44.80
2022-08-01T12:50:27.696Z,38.40
2022-08-01T12:51:36.891Z,44.80
2022-08-01T12:54:53.008Z,38.60
2022-08-01T12:55:58.092Z,44.20
2022-08-01T12:58:58.282Z,38.80
2022-08-01T13:00:11.153Z,43.30
2022-08-01T13:03:23.689Z,39.00
2022-08-01T13:04:16.950Z,42.40
2022-08-01T13:07:45.986Z,39.40
2022-08-01T13:08:25.349Z,41.70
2022-08-01T13:11:56.207Z,39.60
2022-08-01T13:12:29.651Z,41.30
2022-08-01T13:16:31.035Z,39.70
2022-08-01T13:16:55.919Z,41.10
2022-08-01T13:20:45.801Z,39.60
2022-08-01T13:21:19.802Z,41.20
2022-08-01T13:25:14.349Z,39.10
2022-08-01T13:25:26.910Z,41.30
2022-08-01T13:29:24.247Z,38.60
2022-08-01T13:29:43.399Z,41.10
2022-08-01T13:33:29.749Z,38.40
2022-08-01T13:33:54.218Z,40.80
2022-08-01T13:37:34.695Z,38.60
2022-08-01T13:38:04.954Z,40.50
2022-08-01T13:41:38.470Z,39.00
2022-08-01T13:42:10.665Z,40.30
2022-08-01T13:45:42.909Z,39.40
2022-08-01T13:46:16.151Z,40.10
2022-08-01T13:49:49.235Z,39.80
2022-08-01T13:50:25.558Z,40.00
2022-08-01T13:54:29.833Z,40.00
2022-08-01T13:58:34.594Z,39.90
2022-08-01T14:02:39.746Z,39.80
2022-08-01T14:06:44.443Z,39.80
2022-08-01T14:10:48.586Z,40.00
2022-08-01T14:14:53.911Z,39.90
2022-08-01T14:18:57.961Z,40.00
2022-08-01T14:23:02.822Z,40.00
2022-08-01T14:27:07.802Z,40.00
2022-08-01T14:31:12.443Z,39.80
2022-08-01T14:35:16.611Z,39.70
2022-08-01T14:39:20.916Z,39.50
2022-08-01T14:43:32.461Z,39.30
2022-08-01T14:47:42.166Z,39.10
2022-08-01T14:51:47.072Z,38.80
2022-08-01T14:55:52.758Z,38.50
2022-08-01T14:59:57.077Z,38.40
2022-08-01T15:04:04.552Z,38.20
2022-08-01T15:08:09.284Z,38.10
2022-08-01T15:12:14.188Z,38.00
2022-08-01T15:16:18.409Z,38.00
2022-08-01T15:20:25.005Z,37.90
2022-08-01T15:24:29.002Z,37.80
2022-08-01T15:28:33.139Z,37.50
2022-08-01T15:32:37.745Z,37.40
2022-08-01T15:36:44.166Z,37.20
2022-08-01T15:40:48.214Z,37.10
2022-08-01T15:44:52.264Z,37.10
2022-08-01T15:48:57.271Z,37.10
2022-08-01T15:53:02.034Z,37.00
2022-08-01T15:57:06.616Z,36.90
2022-08-01T16:01:10.855Z,36.80
2022-08-01T16:05:15.997Z,36.80
2022-08-01T16:09:24.426Z,36.70
2022-08-01T16:13:31.308Z,36.60
2022-08-01T16:17:38.325Z,36.40
2022-08-01T16:21:48.874Z,36.30
2022-08-01T16:25:53.637Z,36.10
2022-08-01T16:29:57.749Z,36.00
2022-08-01T16:34:05.046Z,35.70
2022-08-01T16:38:13.147Z,35.60
2022-08-01T16:42:20.296Z,35.50
2022-08-01T16:46:29.910Z,35.40
2022-08-01T16:50:37.192Z,35.30
2022-08-01T16:54:42.326Z,35.20
2022-08-01T16:58:46.669Z,35.10
2022-08-01T17:02:50.918Z,35.00
2022-08-01T17:06:54.973Z,34.90
2022-08-01T17:10:59.003Z,34.70
2022-08-01T17:15:03.328Z,34.50
2022-08-01T17:19:07.242Z,34.30
2022-08-01T17:23:11.879Z,34.20
2022-08-01T17:27:16.148Z,34.10
2022-08-01T17:31:20.387Z,34.00
2022-08-01T17:35:24.439Z,33.90
2022-08-01T17:39:36.362Z,33.80
2022-08-01T17:43:46.111Z,33.60
2022-08-01T17:47:51.132Z,33.50
2022-08-01T17:51:55.508Z,33.40
2022-08-01T17:56:02.707Z,33.30
2022-08-01T18:00:10.710Z,33.10
2022-08-01T18:04:15.153Z,33.00
2022-08-01T18:08:19.922Z,32.80
2022-08-01T18:12:25.184Z,32.70
2022-08-01T18:16:29.281Z,32.60
2022-08-01T18:20:33.770Z,32.40
2022-08-01T18:24:38.884Z,32.00
2022-08-01T18:28:46.813Z,31.70
2022-08-01T18:32:51.299Z,31.30
2022-08-01T18:36:57.451Z,31.00
2022-08-01T18:41:03.126Z,30.80
2022-08-01T18:45:08.142Z,30.50
2022-08-01T18:49:13.417Z,30.40
2022-08-01T18:53:19.292Z,30.30
2022-08-01T18:57:23.894Z,30.10
2022-08-01T19:01:28.121Z,30.00
2022-08-01T19:05:35.058Z,29.80
2022-08-01T19:09:41.530Z,29.50
2022-08-01T19:13:45.533Z,29.30
2022-08-01T19:17:49.910Z,29.10
2022-08-01T19:21:55.823Z,28.90
2022-08-01T19:26:07.275Z,28.80
2022-08-01T19:30:12.709Z,28.60
2022-08-01T19:34:20.330Z,28.30
2022-08-01T19:38:33.671Z,28.10
2022-08-01T19:42:44.663Z,27.80
2022-08-01T19:46:49.396Z,27.50
2022-08-01T19:50:55.665Z,27.20
2022-08-01T19:55:04.921Z,27.00
2022-08-01T19:59:23.009Z,26.70
2022-08-01T20:03:28.777Z,26.60
2022-08-01T20:07:36.552Z,26.50
2022-08-01T20:11:50.232Z,26.40
2022-08-01T20:15:57.809Z,26.20
2022-08-01T20:20:03.223Z,26.00
2022-08-01T20:24:12.073Z,25.80
2022-08-01T20:28:17.722Z,25.70
2022-08-01T20:32:28.640Z,25.60
2022-08-01T20:36:36.570Z,25.50
2022-08-01T20:40:45.733Z,25.30
2022-08-01T20:44:52.594Z,25.20
2022-08-01T20:48:58.928Z,25.10
2022-08-01T20:53:05.358Z,25.00
2022-08-01T20:57:31.658Z,24.90
2022-08-01T21:02:03.624Z,24.80
2022-08-01T21:06:16.142Z,24.50
2022-08-01T21:10:26.492Z,24.30
2022-08-01T21:14:53.570Z,24.20
2022-08-01T21:19:20.567Z,24.10
2022-08-01T21:23:40.479Z,24.00
2022-08-01T21:27:47.420Z,23.90
2022-08-01T21:32:11.832Z,23.70
2022-08-01T21:36:20.102Z,23.50
2022-08-01T21:40:26.901Z,23.40
2022-08-01T21:44:33.553Z,23.20
2022-08-01T21:48:39.713Z,23.10
2022-08-01T21:52:50.756Z,23.00
2022-08-01T21:56:57.927Z,22.80
2022-08-01T22:01:32.632Z,22.70
2022-08-01T22:05:50.651Z,22.60
2022-08-01T22:09:58.322Z,22.50
2022-08-01T22:14:12.584Z,22.50
2022-08-01T22:18:18.243Z,22.40
2022-08-01T22:22:45.252Z,22.30
2022-08-01T22:26:54.933Z,22.20
2022-08-01T22:31:00.933Z,22.20
2022-08-01T22:35:11.882Z,22.10
2022-08-01T22:39:22.233Z,22.10
2022-08-01T22:43:42.650Z,22.10
2022-08-01T22:47:58.493Z,22.00
2022-08-01T22:52:19.741Z,22.00
2022-08-01T22:56:24.301Z,22.00
2022-08-01T23:00:31.488Z,22.00
2022-08-01T23:04:40.423Z,21.80
2022-08-01T23:08:49.492Z,21.60
2022-08-01T23:12:55.203Z,21.50
2022-08-01T23:17:27.040Z,21.40
2022-08-01T23:21:32.302Z,21.20
2022-08-01T23:25:38.002Z,21.20
2022-08-01T23:29:42.102Z,21.20
